createdAt,value
2024-01-24T00:00:06.115Z,4.88
2024-01-24T00:01:06.181Z,4.88
2024-01-24T00:02:06.140Z,4.89
2024-01-24T00:03:06.183Z,4.90
2024-01-24T00:04:06.199Z,4.89
2024-01-24T00:05:06.185Z,4.89
2024-01-24T00:06:06.161Z,4.90
2024-01-24T00:07:06.176Z,4.94
2024-01-24T00:08:06.169Z,4.96
2024-01-24T00:09:06.186Z,4.99
2024-01-24T00:10:06.183Z,4.99
2024-01-24T00:11:06.182Z,5.07
2024-01-24T00:12:06.240Z,5.03
2024-01-24T00:13:06.232Z,5.04
2024-01-24T00:14:06.258Z,4.93
2024-01-24T00:15:06.209Z,4.98
2024-01-24T00:16:06.240Z,4.92
2024-01-24T00:17:06.241Z,5.01
2024-01-24T00:18:06.341Z,4.97
2024-01-24T00:19:06.382Z,4.91
2024-01-24T00:20:06.310Z,4.93
2024-01-24T00:21:06.389Z,4.89
2024-01-24T00:22:06.414Z,4.89
2024-01-24T00:23:06.445Z,4.89
2024-01-24T00:24:06.488Z,4.88
2024-01-24T00:25:06.530Z,4.95
2024-01-24T00:26:06.577Z,4.83
2024-01-24T00:27:06.633Z,4.89
2024-01-24T00:28:06.653Z,4.94
2024-01-24T00:29:06.702Z,4.87
2024-01-24T00:30:06.758Z,4.90
2024-01-24T00:31:06.798Z,4.96
2024-01-24T00:32:06.846Z,4.86
2024-01-24T00:33:06.884Z,4.90
2024-01-24T00:34:07.022Z,4.90
2024-01-24T00:35:06.910Z,4.86
2024-01-24T00:36:06.916Z,4.91
2024-01-24T00:37:06.942Z,4.92
2024-01-24T00:38:06.949Z,4.93
2024-01-24T00:39:06.949Z,4.86
2024-01-24T00:40:06.977Z,4.88
2024-01-24T00:41:06.960Z,4.87
2024-01-24T00:42:07.009Z,4.86
2024-01-24T00:43:06.984Z,4.91
2024-01-24T00:44:07.002Z,4.88
2024-01-24T00:45:07.009Z,4.85
2024-01-24T00:46:07.033Z,4.85
2024-01-24T00:47:07.052Z,4.85
2024-01-24T00:48:07.065Z,4.86
2024-01-24T00:49:07.076Z,4.86
2024-01-24T00:50:07.065Z,4.85
2024-01-24T00:51:07.044Z,4.87
2024-01-24T00:52:07.046Z,4.90
2024-01-24T00:53:07.043Z,4.91
2024-01-24T00:54:07.081Z,4.96
2024-01-24T00:55:07.071Z,4.93
2024-01-24T00:56:07.066Z,4.93
2024-01-24T00:57:07.076Z,4.87
2024-01-24T00:58:07.104Z,4.84
2024-01-24T00:59:07.122Z,4.86
2024-01-24T01:00:07.181Z,4.82
2024-01-24T01:01:07.241Z,4.87
2024-01-24T01:02:07.144Z,4.89
2024-01-24T01:03:07.334Z,4.78
2024-01-24T01:04:07.255Z,4.87
2024-01-24T01:05:07.223Z,4.79
2024-01-24T01:06:07.248Z,4.82
2024-01-24T01:07:07.282Z,4.79
2024-01-24T01:08:07.339Z,4.79
2024-01-24T01:09:07.369Z,4.85
2024-01-24T01:10:07.419Z,4.82
2024-01-24T01:11:07.471Z,4.75
2024-01-24T01:12:07.514Z,4.77
2024-01-24T01:13:07.553Z,4.78
2024-01-24T01:14:07.597Z,4.79
2024-01-24T01:15:07.625Z,4.71
2024-01-24T01:16:07.682Z,4.79
2024-01-24T01:17:07.729Z,4.71
2024-01-24T01:18:07.815Z,4.81
2024-01-24T01:19:07.980Z,4.74
2024-01-24T01:20:07.877Z,4.80
2024-01-24T01:21:07.938Z,4.71
2024-01-24T01:22:07.994Z,4.72
2024-01-24T01:23:07.985Z,4.71
2024-01-24T01:24:08.044Z,4.75
2024-01-24T01:25:08.094Z,4.74
2024-01-24T01:26:08.118Z,4.72
2024-01-24T01:27:08.163Z,4.75
2024-01-24T01:28:08.232Z,4.64
2024-01-24T01:29:08.274Z,4.65
2024-01-24T01:30:08.318Z,4.60
2024-01-24T01:31:08.335Z,4.72
2024-01-24T01:32:08.399Z,4.57
2024-01-24T01:33:08.460Z,4.63
2024-01-24T01:34:08.484Z,4.64
2024-01-24T01:35:08.442Z,4.64
2024-01-24T01:36:17.420Z,4.66
2024-01-24T01:37:09.467Z,4.64
2024-01-24T01:38:08.449Z,4.66
2024-01-24T01:39:08.447Z,4.66
2024-01-24T01:40:08.439Z,4.73
2024-01-24T01:41:08.476Z,4.73
2024-01-24T01:42:08.464Z,4.69
2024-01-24T01:43:08.450Z,4.71
2024-01-24T01:44:08.460Z,4.68
2024-01-24T01:45:08.470Z,4.74
2024-01-24T01:46:08.502Z,4.72
2024-01-24T01:47:08.501Z,4.68
2024-01-24T01:48:08.548Z,4.69
2024-01-24T01:49:08.608Z,4.65
2024-01-24T01:50:08.534Z,4.70
2024-01-24T01:51:08.532Z,4.68
2024-01-24T01:52:08.557Z,4.56
2024-01-24T01:53:08.574Z,4.55
2024-01-24T01:54:08.605Z,4.62
2024-01-24T01:55:08.647Z,4.51
2024-01-24T01:56:08.679Z,4.62
2024-01-24T01:57:08.709Z,4.55
2024-01-24T01:58:08.766Z,4.56
2024-01-24T01:59:08.790Z,4.59
2024-01-24T02:00:08.840Z,4.57
2024-01-24T02:01:09.040Z,4.52
2024-01-24T02:02:08.921Z,4.48
2024-01-24T02:03:09.093Z,4.58
2024-01-24T02:04:09.044Z,4.49
2024-01-24T02:05:09.043Z,4.57
2024-01-24T02:06:09.186Z,4.52
2024-01-24T02:07:09.151Z,4.52
2024-01-24T02:08:09.114Z,4.53
2024-01-24T02:09:09.137Z,4.53
2024-01-24T02:10:09.138Z,4.57
2024-01-24T02:11:09.215Z,4.55
2024-01-24T02:12:09.164Z,4.52
2024-01-24T02:13:09.199Z,4.54
2024-01-24T02:14:09.188Z,4.62
2024-01-24T02:15:09.237Z,4.63
2024-01-24T02:16:09.211Z,4.52
2024-01-24T02:17:09.226Z,4.46
2024-01-24T02:18:09.338Z,4.46
2024-01-24T02:19:09.283Z,4.53
2024-01-24T02:20:09.233Z,4.48
2024-01-24T02:21:09.236Z,4.54
2024-01-24T02:22:09.249Z,4.49
2024-01-24T02:23:09.240Z,4.51
2024-01-24T02:24:09.248Z,4.51
2024-01-24T02:25:09.254Z,4.49
2024-01-24T02:26:09.258Z,4.51
2024-01-24T02:27:09.278Z,4.52
2024-01-24T02:28:09.359Z,4.49
2024-01-24T02:29:09.271Z,4.51
2024-01-24T02:30:09.281Z,4.52
2024-01-24T02:31:09.293Z,4.51
2024-01-24T02:32:09.309Z,4.54
2024-01-24T02:33:09.394Z,4.50
2024-01-24T02:34:09.380Z,4.47
2024-01-24T02:35:09.296Z,4.49
2024-01-24T02:36:09.320Z,4.53
2024-01-24T02:37:09.331Z,4.47
2024-01-24T02:38:09.329Z,4.49
2024-01-24T02:39:09.349Z,4.42
2024-01-24T02:40:09.382Z,4.45
2024-01-24T02:41:09.385Z,4.42
2024-01-24T02:42:09.394Z,4.42
2024-01-24T02:43:09.411Z,4.44
2024-01-24T02:44:09.420Z,4.45
2024-01-24T02:45:09.430Z,4.45
2024-01-24T02:46:09.442Z,4.42
2024-01-24T02:47:09.453Z,4.41
2024-01-24T02:48:09.556Z,4.41
2024-01-24T02:49:09.560Z,4.43
2024-01-24T02:50:11.409Z,4.43
2024-01-24T02:51:09.503Z,4.44
2024-01-24T02:52:09.520Z,4.45
2024-01-24T02:53:09.532Z,4.45
2024-01-24T02:54:09.535Z,4.49
2024-01-24T02:55:09.542Z,4.51
2024-01-24T02:56:09.567Z,4.43
2024-01-24T02:57:09.596Z,4.42
2024-01-24T02:58:09.572Z,4.41
2024-01-24T02:59:09.582Z,4.51
2024-01-24T03:00:09.587Z,4.45
2024-01-24T03:01:09.680Z,4.40
2024-01-24T03:02:09.616Z,4.38
2024-01-24T03:03:09.718Z,4.37
2024-01-24T03:04:09.749Z,4.35
2024-01-24T03:05:09.644Z,4.39
2024-01-24T03:06:09.664Z,4.44
2024-01-24T03:07:09.752Z,4.31
2024-01-24T03:08:09.679Z,4.43
2024-01-24T03:09:09.684Z,4.44
2024-01-24T03:10:09.734Z,4.45
2024-01-24T03:11:09.684Z,4.42
2024-01-24T03:12:09.694Z,4.45
2024-01-24T03:13:09.755Z,4.43
2024-01-24T03:14:09.707Z,4.31
2024-01-24T03:15:09.719Z,4.37
2024-01-24T03:16:09.742Z,4.39
2024-01-24T03:17:09.728Z,4.39
2024-01-24T03:18:09.815Z,4.43
2024-01-24T03:19:09.806Z,4.32
2024-01-24T03:20:09.744Z,4.33
2024-01-24T03:21:09.757Z,4.31
2024-01-24T03:22:09.814Z,4.27
2024-01-24T03:23:09.847Z,4.32
2024-01-24T03:24:09.900Z,4.29
2024-01-24T03:25:09.958Z,4.29
2024-01-24T03:26:09.988Z,4.26
2024-01-24T03:27:10.045Z,4.23
2024-01-24T03:28:10.086Z,4.31
2024-01-24T03:29:10.127Z,4.28
2024-01-24T03:30:10.188Z,4.16
2024-01-24T03:31:10.225Z,4.21
2024-01-24T03:32:10.268Z,4.21
2024-01-24T03:33:10.315Z,4.21
2024-01-24T03:34:10.342Z,4.25
2024-01-24T03:35:10.304Z,4.26
2024-01-24T03:36:10.263Z,4.21
2024-01-24T03:37:10.284Z,4.23
2024-01-24T03:38:10.286Z,4.23
2024-01-24T03:39:10.295Z,4.26
2024-01-24T03:40:10.301Z,4.27
2024-01-24T03:41:10.338Z,4.31
2024-01-24T03:42:10.337Z,4.28
2024-01-24T03:43:10.339Z,4.20
2024-01-24T03:44:10.387Z,4.19
2024-01-24T03:45:10.364Z,4.23
2024-01-24T03:46:10.369Z,4.15
2024-01-24T03:47:10.378Z,4.23
2024-01-24T03:48:10.426Z,4.22
2024-01-24T03:49:10.411Z,4.17
2024-01-24T03:50:10.449Z,4.23
2024-01-24T03:51:10.514Z,4.17
2024-01-24T03:52:10.522Z,4.17
2024-01-24T03:53:10.526Z,4.18
2024-01-24T03:54:10.534Z,4.12
2024-01-24T03:55:10.584Z,4.13
2024-01-24T03:56:10.591Z,4.16
2024-01-24T03:57:10.634Z,4.14
2024-01-24T03:58:10.585Z,4.19
2024-01-24T03:59:10.600Z,4.22
2024-01-24T04:00:10.597Z,4.18
2024-01-24T04:01:10.770Z,4.17
2024-01-24T04:02:12.032Z,4.11
2024-01-24T04:03:10.640Z,4.12
2024-01-24T04:04:10.760Z,4.02
2024-01-24T04:05:10.656Z,4.03
2024-01-24T04:06:10.698Z,4.03
2024-01-24T04:07:10.761Z,4.06
2024-01-24T04:08:10.673Z,4.10
2024-01-24T04:09:10.679Z,4.03
2024-01-24T04:10:10.682Z,4.05
2024-01-24T04:11:10.694Z,4.07
2024-01-24T04:12:10.718Z,4.09
2024-01-24T04:13:10.711Z,4.16
2024-01-24T04:14:10.747Z,4.09
2024-01-24T04:15:10.743Z,4.10
2024-01-24T04:16:10.815Z,4.06
2024-01-24T04:17:10.762Z,4.06
2024-01-24T04:18:10.846Z,4.03
2024-01-24T04:19:10.824Z,4.08
2024-01-24T04:20:10.776Z,4.08
2024-01-24T04:21:10.800Z,4.08
2024-01-24T04:22:10.817Z,4.07
2024-01-24T04:23:10.811Z,4.09
2024-01-24T04:24:10.805Z,4.13
2024-01-24T04:25:10.821Z,4.04
2024-01-24T04:26:10.829Z,4.01
2024-01-24T04:27:10.836Z,4.03
2024-01-24T04:28:10.837Z,4.05
2024-01-24T04:29:13.611Z,4.01
2024-01-24T04:30:10.854Z,4.11
2024-01-24T04:31:10.867Z,4.07
2024-01-24T04:32:10.890Z,4.01
2024-01-24T04:33:11.005Z,4.03
2024-01-24T04:34:11.029Z,3.98
2024-01-24T04:35:10.892Z,4.01
2024-01-24T04:36:10.898Z,4.02
2024-01-24T04:37:10.941Z,4.02
2024-01-24T04:38:10.908Z,4.04
2024-01-24T04:39:10.930Z,4.02
2024-01-24T04:40:10.947Z,4.02
2024-01-24T04:41:10.941Z,3.98
2024-01-24T04:42:16.188Z,3.98
2024-01-24T04:43:11.978Z,3.98
2024-01-24T04:44:10.972Z,3.98
2024-01-24T04:45:18.306Z,0.50
2024-01-24T04:46:18.256Z,0.50
2024-01-24T04:47:18.317Z,0.50
2024-01-24T04:48:18.422Z,0.50
2024-01-24T04:49:26.585Z,0.50
2024-01-24T04:50:18.606Z,0.50
2024-01-24T04:51:18.373Z,0.50
2024-01-24T04:52:18.321Z,0.50
2024-01-24T04:53:18.412Z,0.50
2024-01-24T04:54:18.475Z,0.50
2024-01-24T04:55:18.347Z,0.50
2024-01-24T04:56:18.363Z,0.50
2024-01-24T04:57:18.375Z,0.51
2024-01-24T04:58:18.392Z,0.50
2024-01-24T04:59:18.459Z,0.50
2024-01-24T05:00:18.428Z,0.51
2024-01-24T05:01:18.516Z,0.51
2024-01-24T05:02:18.408Z,0.51
2024-01-24T05:03:18.442Z,0.51
2024-01-24T05:04:18.466Z,0.51
2024-01-24T05:05:18.526Z,0.51
2024-01-24T05:06:18.546Z,0.51
2024-01-24T05:07:19.006Z,0.50
2024-01-24T05:08:18.533Z,0.50
2024-01-24T05:09:18.611Z,0.50
2024-01-24T05:10:18.649Z,0.52
2024-01-24T05:11:18.693Z,0.51
2024-01-24T05:12:18.801Z,0.51
2024-01-24T05:13:18.795Z,0.51
2024-01-24T05:14:18.838Z,0.51
2024-01-24T05:15:18.972Z,0.51
2024-01-24T05:16:18.946Z,0.51
2024-01-24T05:17:19.003Z,0.51
2024-01-24T05:18:19.145Z,0.52
2024-01-24T05:19:19.194Z,0.52
2024-01-24T05:20:19.124Z,0.52
2024-01-24T05:21:19.196Z,0.51
2024-01-24T05:22:19.149Z,0.52
2024-01-24T05:23:19.146Z,0.51
2024-01-24T05:24:19.220Z,0.52
2024-01-24T05:25:19.155Z,0.52
2024-01-24T05:26:19.177Z,0.52
2024-01-24T05:27:19.217Z,0.51
2024-01-24T05:28:19.197Z,0.51
2024-01-24T05:29:19.227Z,0.51
2024-01-24T05:30:29.954Z,0.49
2024-01-24T05:31:20.289Z,0.49
2024-01-24T05:32:19.269Z,0.48
2024-01-24T05:33:19.379Z,0.47
2024-01-24T05:34:19.360Z,0.44
2024-01-24T05:35:19.313Z,0.42
2024-01-24T05:36:19.343Z,0.41
2024-01-24T05:37:19.354Z,0.47
2024-01-24T05:38:19.344Z,0.50
2024-01-24T05:39:19.394Z,0.50
2024-01-24T05:40:19.370Z,0.51
2024-01-24T05:41:19.403Z,0.49
2024-01-24T05:42:19.448Z,0.48
2024-01-24T05:43:19.439Z,0.47
2024-01-24T05:44:19.462Z,0.45
2024-01-24T05:45:19.505Z,0.44
2024-01-24T05:46:19.503Z,0.50
2024-01-24T05:47:19.535Z,0.52
2024-01-24T05:48:19.682Z,0.49
2024-01-24T05:49:19.819Z,0.46
2024-01-24T05:50:19.564Z,0.44
2024-01-24T05:51:19.660Z,0.43
2024-01-24T05:52:19.627Z,0.41
2024-01-24T05:53:19.625Z,0.47
2024-01-24T05:54:19.670Z,0.47
2024-01-24T05:55:19.655Z,0.47
2024-01-24T05:56:19.662Z,0.46
2024-01-24T05:57:19.728Z,0.46
2024-01-24T05:58:19.702Z,0.47
2024-01-24T05:59:19.731Z,0.47
2024-01-24T06:00:19.821Z,0.47
2024-01-24T06:01:19.831Z,0.46
2024-01-24T06:02:19.782Z,0.46
2024-01-24T06:03:19.834Z,0.45
2024-01-24T06:04:19.917Z,0.50
2024-01-24T06:05:19.941Z,0.50
2024-01-24T06:06:20.023Z,0.50
2024-01-24T06:07:19.979Z,0.50
2024-01-24T06:08:19.924Z,0.50
2024-01-24T06:09:20.101Z,0.51
2024-01-24T06:10:19.975Z,0.50
2024-01-24T06:11:20.017Z,0.50
2024-01-24T06:12:20.052Z,0.51
2024-01-24T06:13:20.065Z,0.50
2024-01-24T06:14:20.071Z,0.50
2024-01-24T06:15:20.121Z,0.50
2024-01-24T06:16:20.132Z,0.50
2024-01-24T06:17:20.148Z,0.50
2024-01-24T06:18:20.305Z,0.51
2024-01-24T06:19:20.208Z,0.51
2024-01-24T06:20:20.201Z,0.53
2024-01-24T06:21:20.236Z,0.53
2024-01-24T06:22:20.248Z,0.54
2024-01-24T06:23:20.278Z,0.55
2024-01-24T06:24:20.864Z,0.55
2024-01-24T06:25:20.335Z,0.57
2024-01-24T06:26:20.352Z,0.56
2024-01-24T06:27:20.434Z,0.57
2024-01-24T06:28:20.382Z,0.58
2024-01-24T06:30:14.824Z,0.58
2024-01-24T06:30:23.569Z,0.57
2024-01-24T06:31:20.524Z,0.58
2024-01-24T06:32:20.475Z,0.58
2024-01-24T06:33:20.545Z,0.58
2024-01-24T06:34:20.549Z,0.59
2024-01-24T06:35:20.518Z,0.60
2024-01-24T06:36:20.591Z,0.61
2024-01-24T06:37:20.556Z,0.60
2024-01-24T06:38:20.571Z,0.60
2024-01-24T06:39:20.622Z,0.60
2024-01-24T06:40:20.614Z,0.59
2024-01-24T06:41:20.643Z,0.59
2024-01-24T06:42:20.654Z,0.57
2024-01-24T06:43:20.656Z,0.57
2024-01-24T06:44:20.664Z,0.56
2024-01-24T06:45:20.926Z,0.53
2024-01-24T06:46:20.701Z,0.51
2024-01-24T06:47:20.722Z,0.50
2024-01-24T06:48:20.805Z,0.50
2024-01-24T06:49:20.825Z,0.52
2024-01-24T06:50:20.789Z,0.52
2024-01-24T06:51:20.845Z,0.52
2024-01-24T06:52:20.843Z,0.53
2024-01-24T06:53:20.782Z,0.55
2024-01-24T06:54:20.845Z,0.59
2024-01-24T06:55:20.793Z,0.52
2024-01-24T06:56:20.854Z,0.54
2024-01-24T06:57:20.833Z,0.57
2024-01-24T06:58:20.825Z,0.62
2024-01-24T06:59:20.855Z,0.71
2024-01-24T07:00:20.886Z,0.76
2024-01-24T07:01:20.940Z,0.78
2024-01-24T07:02:20.864Z,0.82
2024-01-24T07:03:23.457Z,0.85
2024-01-24T07:04:20.939Z,0.85
2024-01-24T07:05:20.899Z,0.87
2024-01-24T07:06:21.081Z,0.90
2024-01-24T07:07:20.923Z,0.94
2024-01-24T07:08:20.908Z,1.02
2024-01-24T07:09:20.931Z,1.06
2024-01-24T07:10:20.902Z,1.08
2024-01-24T07:11:20.915Z,1.11
2024-01-24T07:12:20.915Z,1.12
2024-01-24T07:13:20.912Z,1.13
2024-01-24T07:14:20.977Z,1.15
2024-01-24T07:15:20.930Z,1.17
2024-01-24T07:16:20.921Z,1.15
2024-01-24T07:17:20.958Z,1.18
2024-01-24T07:18:21.049Z,1.18
2024-01-24T07:19:21.114Z,1.18
2024-01-24T07:20:20.968Z,1.19
2024-01-24T07:21:20.974Z,1.19
2024-01-24T07:22:20.985Z,1.17
2024-01-24T07:23:21.005Z,1.17
2024-01-24T07:24:21.041Z,1.17
2024-01-24T07:25:21.193Z,1.14
2024-01-24T07:26:21.080Z,1.14
2024-01-24T07:27:21.190Z,1.11
2024-01-24T07:28:21.179Z,1.08
2024-01-24T07:29:21.161Z,1.06
2024-01-24T07:30:21.310Z,1.02
2024-01-24T07:31:21.222Z,1.00
2024-01-24T07:32:21.247Z,0.98
2024-01-24T07:33:24.983Z,0.96
2024-01-24T07:34:21.368Z,0.96
2024-01-24T07:35:21.317Z,0.94
2024-01-24T07:36:21.309Z,0.93
2024-01-24T07:37:21.298Z,0.92
2024-01-24T07:38:21.282Z,0.91
2024-01-24T07:39:21.396Z,0.91
2024-01-24T07:40:21.297Z,0.90
2024-01-24T07:41:21.300Z,0.88
2024-01-24T07:42:21.324Z,0.87
2024-01-24T07:43:21.322Z,0.85
2024-01-24T07:44:21.363Z,0.83
2024-01-24T07:45:21.333Z,0.79
2024-01-24T07:46:21.340Z,0.76
2024-01-24T07:47:21.327Z,0.74
2024-01-24T07:48:21.472Z,0.72
2024-01-24T07:49:21.486Z,0.72
2024-01-24T07:50:21.458Z,0.70
2024-01-24T07:51:21.383Z,0.88
2024-01-24T07:52:28.986Z,0.91
2024-01-24T07:53:22.374Z,0.89
2024-01-24T07:54:21.422Z,0.82
2024-01-24T07:55:28.311Z,0.79
2024-01-24T07:57:21.492Z,0.72
2024-01-24T07:58:21.588Z,0.69
2024-01-24T07:59:21.436Z,0.67
2024-01-24T08:00:21.505Z,0.65
2024-01-24T08:01:22.262Z,0.64
2024-01-24T08:02:21.484Z,0.63
2024-01-24T08:03:21.569Z,0.61
2024-01-24T08:04:21.695Z,0.61
2024-01-24T08:05:21.572Z,0.60
2024-01-24T08:06:21.729Z,0.60
2024-01-24T08:07:21.629Z,0.59
2024-01-24T08:08:21.622Z,0.60
2024-01-24T08:09:21.662Z,0.59
2024-01-24T08:10:21.765Z,0.59
2024-01-24T08:11:21.652Z,0.59
2024-01-24T08:12:21.728Z,0.59
2024-01-24T08:13:21.690Z,0.58
2024-01-24T08:14:21.706Z,0.61
2024-01-24T08:15:21.760Z,0.59
2024-01-24T08:16:21.743Z,0.59
2024-01-24T08:17:21.783Z,0.57
2024-01-24T08:18:21.808Z,0.57
2024-01-24T08:19:21.765Z,0.57
2024-01-24T08:20:21.831Z,0.55
2024-01-24T08:21:21.841Z,0.56
2024-01-24T08:22:21.803Z,0.55
2024-01-24T08:23:24.644Z,0.55
2024-01-24T08:24:21.860Z,0.54
2024-01-24T08:25:21.812Z,0.52
2024-01-24T08:26:21.801Z,0.53
2024-01-24T08:27:21.833Z,0.53
2024-01-24T08:28:21.932Z,0.54
2024-01-24T08:29:26.149Z,0.53
2024-01-24T08:30:22.813Z,0.53
2024-01-24T08:31:21.773Z,0.54
2024-01-24T08:32:21.821Z,0.54
2024-01-24T08:33:21.867Z,0.54
2024-01-24T08:34:21.846Z,0.55
2024-01-24T08:35:21.775Z,0.54
2024-01-24T08:36:21.783Z,0.55
2024-01-24T08:37:21.765Z,0.54
2024-01-24T08:38:21.745Z,0.53
2024-01-24T08:39:21.768Z,0.53
2024-01-24T08:40:21.736Z,0.51
2024-01-24T08:41:21.758Z,0.51
2024-01-24T08:42:21.770Z,0.50
2024-01-24T08:43:21.735Z,0.52
2024-01-24T08:44:21.732Z,0.52
2024-01-24T08:45:21.736Z,0.52
2024-01-24T08:46:21.743Z,0.53
2024-01-24T08:47:21.714Z,0.53
2024-01-24T08:48:21.874Z,0.55
2024-01-24T08:49:21.795Z,0.56
2024-01-24T08:50:21.740Z,0.55
2024-01-24T08:51:21.769Z,0.55
2024-01-24T08:52:21.740Z,0.54
2024-01-24T08:53:21.718Z,0.53
2024-01-24T08:54:21.763Z,0.52
2024-01-24T08:55:21.716Z,0.53
2024-01-24T08:56:21.726Z,0.52
2024-01-24T08:57:21.794Z,0.53
2024-01-24T08:58:21.721Z,0.53
2024-01-24T08:59:21.726Z,0.53
2024-01-24T09:00:21.753Z,0.53
2024-01-24T09:01:21.851Z,0.53
2024-01-24T09:02:21.711Z,0.53
2024-01-24T09:03:21.793Z,0.52
2024-01-24T09:04:21.773Z,0.51
2024-01-24T09:05:21.738Z,0.50
2024-01-24T09:06:21.749Z,0.50
2024-01-24T09:07:21.712Z,0.50
2024-01-24T09:08:21.717Z,0.51
2024-01-24T09:09:21.768Z,0.50
2024-01-24T09:10:21.788Z,0.50
2024-01-24T09:11:21.728Z,0.50
2024-01-24T09:12:21.790Z,0.50
2024-01-24T09:13:21.740Z,0.50
2024-01-24T09:14:21.750Z,0.50
2024-01-24T09:15:21.795Z,0.51
2024-01-24T09:16:21.751Z,0.51
2024-01-24T09:17:21.765Z,0.51
2024-01-24T09:18:22.007Z,0.52
2024-01-24T09:19:21.823Z,0.53
2024-01-24T09:20:21.841Z,0.54
2024-01-24T09:21:21.808Z,0.54
2024-01-24T09:22:21.757Z,0.55
2024-01-24T09:23:21.769Z,0.55
2024-01-24T09:24:21.788Z,0.55
2024-01-24T09:25:21.801Z,0.54
2024-01-24T09:26:21.776Z,0.54
2024-01-24T09:27:21.797Z,0.54
2024-01-24T09:28:21.785Z,0.54
2024-01-24T09:29:21.768Z,0.54
2024-01-24T09:30:21.816Z,0.55
2024-01-24T09:31:21.795Z,0.55
2024-01-24T09:32:21.794Z,0.57
2024-01-24T09:33:21.877Z,0.57
2024-01-24T09:34:21.862Z,0.57
2024-01-24T09:35:21.901Z,0.57
2024-01-24T09:36:22.432Z,0.57
2024-01-24T09:37:21.785Z,0.56
2024-01-24T09:38:21.768Z,0.56
2024-01-24T09:39:21.832Z,0.56
2024-01-24T09:40:21.913Z,0.55
2024-01-24T09:41:21.826Z,0.55
2024-01-24T09:42:21.886Z,0.55
2024-01-24T09:43:21.845Z,0.55
2024-01-24T09:44:21.831Z,0.55
2024-01-24T09:45:21.885Z,0.54
2024-01-24T09:46:21.915Z,0.53
2024-01-24T09:47:21.877Z,0.53
2024-01-24T09:48:21.976Z,0.51
2024-01-24T09:49:21.961Z,0.50
2024-01-24T09:50:21.948Z,0.50
2024-01-24T09:51:21.940Z,0.50
2024-01-24T09:52:21.953Z,0.50
2024-01-24T09:53:22.035Z,0.50
2024-01-24T09:54:22.117Z,0.50
2024-01-24T09:55:22.072Z,0.50
2024-01-24T09:56:22.109Z,0.51
2024-01-24T09:57:22.109Z,0.51
2024-01-24T09:58:22.111Z,0.52
2024-01-24T09:59:22.069Z,0.53
2024-01-24T10:00:22.133Z,0.55
2024-01-24T10:01:22.157Z,0.54
2024-01-24T10:02:22.081Z,0.56
2024-01-24T10:03:22.162Z,0.57
2024-01-24T10:04:22.210Z,0.57
2024-01-24T10:05:22.084Z,0.58
2024-01-24T10:06:22.149Z,0.61
2024-01-24T10:07:22.132Z,0.62
2024-01-24T10:08:22.089Z,0.63
2024-01-24T10:09:22.126Z,0.65
2024-01-24T10:10:22.140Z,0.65
2024-01-24T10:11:22.085Z,0.67
2024-01-24T10:12:22.180Z,0.68
2024-01-24T10:13:22.927Z,0.70
2024-01-24T10:14:22.115Z,0.72
2024-01-24T10:15:22.181Z,0.74
2024-01-24T10:16:22.143Z,0.76
2024-01-24T10:17:22.177Z,0.77
2024-01-24T10:18:22.242Z,0.78
2024-01-24T10:19:22.244Z,0.80
2024-01-24T10:20:22.181Z,0.81
2024-01-24T10:21:22.288Z,0.83
2024-01-24T10:22:22.365Z,0.83
2024-01-24T10:23:22.192Z,0.83
2024-01-24T10:24:22.228Z,0.84
2024-01-24T10:25:22.204Z,0.84
2024-01-24T10:26:22.219Z,0.84
2024-01-24T10:27:22.261Z,0.85
2024-01-24T10:28:22.243Z,0.84
2024-01-24T10:29:22.203Z,0.85
2024-01-24T10:30:22.251Z,0.86
2024-01-24T10:31:22.341Z,0.89
2024-01-24T10:32:22.198Z,0.93
2024-01-24T10:33:22.312Z,0.94
2024-01-24T10:34:22.324Z,0.93
2024-01-24T10:35:22.234Z,0.94
2024-01-24T10:36:27.555Z,0.95
2024-01-24T10:37:23.620Z,0.95
2024-01-24T10:38:22.182Z,0.93
2024-01-24T10:39:22.179Z,0.92
2024-01-24T10:40:22.159Z,0.92
2024-01-24T10:41:22.144Z,0.93
2024-01-24T10:42:22.205Z,0.92
2024-01-24T10:43:22.140Z,0.90
2024-01-24T10:44:22.175Z,0.89
2024-01-24T10:45:22.261Z,0.88
2024-01-24T10:46:22.170Z,0.86
2024-01-24T10:47:22.197Z,0.84
2024-01-24T10:48:22.287Z,0.76
2024-01-24T10:49:22.170Z,0.75
2024-01-24T10:50:22.121Z,0.71
2024-01-24T10:51:22.136Z,0.71
2024-01-24T10:52:22.159Z,0.71
2024-01-24T10:53:22.135Z,0.67
2024-01-24T10:54:22.142Z,0.65
2024-01-24T10:55:22.099Z,0.63
2024-01-24T10:56:22.101Z,0.62
2024-01-24T10:57:22.116Z,0.60
2024-01-24T10:58:22.123Z,0.57
2024-01-24T10:59:22.120Z,0.55
2024-01-24T11:00:22.156Z,0.52
2024-01-24T11:01:22.191Z,0.51
2024-01-24T11:02:22.162Z,0.51
2024-01-24T11:03:22.225Z,0.51
2024-01-24T11:04:22.133Z,0.51
2024-01-24T11:05:22.281Z,0.52
2024-01-24T11:06:22.159Z,0.53
2024-01-24T11:07:22.153Z,0.52
2024-01-24T11:08:23.690Z,0.52
2024-01-24T11:09:22.193Z,0.51
2024-01-24T11:10:22.227Z,0.51
2024-01-24T11:11:22.179Z,0.53
2024-01-24T11:12:22.216Z,0.52
2024-01-24T11:13:22.210Z,0.50
2024-01-24T11:14:22.178Z,0.50
2024-01-24T11:15:22.274Z,0.51
2024-01-24T11:16:22.185Z,0.51
2024-01-24T11:17:22.242Z,0.53
2024-01-24T11:18:22.272Z,0.57
2024-01-24T11:19:22.472Z,0.57
2024-01-24T11:20:22.236Z,0.59
2024-01-24T11:21:22.247Z,0.61
2024-01-24T11:22:27.125Z,0.62
2024-01-24T11:23:23.220Z,0.62
2024-01-24T11:24:22.219Z,0.63
2024-01-24T11:25:22.238Z,0.66
2024-01-24T11:26:22.334Z,0.70
2024-01-24T11:27:23.086Z,0.77
2024-01-24T11:28:22.230Z,0.81
2024-01-24T11:29:22.229Z,0.82
2024-01-24T11:30:22.322Z,0.85
2024-01-24T11:31:22.212Z,0.87
2024-01-24T11:32:22.221Z,0.90
2024-01-24T11:33:22.269Z,0.90
2024-01-24T11:34:22.313Z,0.91
2024-01-24T11:35:22.290Z,0.92
2024-01-24T11:36:22.222Z,0.92
2024-01-24T11:37:22.218Z,0.91
2024-01-24T11:38:26.670Z,0.92
2024-01-24T11:39:23.238Z,0.92
2024-01-24T11:40:22.212Z,0.92
2024-01-24T11:41:22.171Z,0.94
2024-01-24T11:42:22.171Z,0.92
2024-01-24T11:43:22.162Z,0.93
2024-01-24T11:44:22.175Z,0.95
2024-01-24T11:45:22.297Z,0.98
2024-01-24T11:46:22.254Z,1.03
2024-01-24T11:47:22.167Z,1.05
2024-01-24T11:48:22.340Z,1.04
2024-01-24T11:49:22.179Z,1.04
2024-01-24T11:50:22.650Z,1.04
2024-01-24T11:51:22.258Z,1.05
2024-01-24T11:52:22.116Z,1.04
2024-01-24T11:53:22.143Z,1.04
2024-01-24T11:54:22.154Z,1.04
2024-01-24T11:55:22.173Z,1.04
2024-01-24T11:56:23.640Z,1.02
2024-01-24T11:57:22.098Z,1.03
2024-01-24T11:58:22.066Z,1.01
2024-01-24T11:59:22.055Z,1.01
2024-01-24T12:00:22.147Z,1.00
2024-01-24T12:01:22.150Z,1.00
2024-01-24T12:02:22.072Z,0.99
2024-01-24T12:03:22.101Z,1.00
2024-01-24T12:04:22.221Z,0.98
2024-01-24T12:05:22.074Z,0.96
2024-01-24T12:06:22.179Z,0.95
2024-01-24T12:07:22.166Z,0.94
2024-01-24T12:08:22.050Z,0.93
2024-01-24T12:09:22.078Z,0.91
2024-01-24T12:10:22.047Z,0.90
2024-01-24T12:11:22.041Z,0.89
2024-01-24T12:12:22.050Z,0.87
2024-01-24T12:13:22.037Z,0.86
2024-01-24T12:14:22.018Z,0.85
2024-01-24T12:15:22.095Z,0.84
2024-01-24T12:16:22.042Z,0.83
2024-01-24T12:17:22.000Z,0.82
2024-01-24T12:18:22.388Z,0.81
2024-01-24T12:19:22.114Z,0.80
2024-01-24T12:20:22.137Z,0.79
2024-01-24T12:21:22.050Z,0.79
2024-01-24T12:22:22.022Z,0.79
2024-01-24T12:23:21.978Z,0.78
2024-01-24T12:24:22.004Z,0.76
2024-01-24T12:25:22.013Z,0.76
2024-01-24T12:26:21.965Z,0.74
2024-01-24T12:27:21.993Z,0.74
2024-01-24T12:28:23.041Z,0.72
2024-01-24T12:29:21.904Z,0.72
2024-01-24T12:30:21.934Z,0.73
2024-01-24T12:31:21.934Z,0.71
2024-01-24T12:32:21.896Z,0.71
2024-01-24T12:33:22.104Z,0.69
2024-01-24T12:34:21.992Z,0.69
2024-01-24T12:35:22.976Z,0.68
2024-01-24T12:36:21.885Z,0.69
2024-01-24T12:37:21.856Z,0.67
2024-01-24T12:38:21.852Z,0.66
2024-01-24T12:39:21.855Z,0.67
2024-01-24T12:40:21.822Z,0.67
2024-01-24T12:41:21.850Z,0.65
2024-01-24T12:42:21.816Z,0.67
2024-01-24T12:43:21.792Z,0.65
2024-01-24T12:44:21.921Z,0.66
2024-01-24T12:45:21.808Z,0.66
2024-01-24T12:46:21.874Z,0.67
2024-01-24T12:47:21.764Z,0.67
2024-01-24T12:48:23.751Z,0.66
2024-01-24T12:49:21.882Z,0.67
2024-01-24T12:50:21.877Z,0.67
2024-01-24T12:51:21.718Z,0.67
2024-01-24T12:52:21.725Z,0.66
2024-01-24T12:53:21.761Z,0.67
2024-01-24T12:54:21.854Z,0.64
2024-01-24T12:55:21.679Z,0.67
2024-01-24T12:56:21.686Z,0.65
2024-01-24T12:57:21.724Z,0.65
2024-01-24T12:58:21.737Z,0.66
2024-01-24T12:59:21.671Z,0.66
2024-01-24T13:00:21.677Z,0.66
2024-01-24T13:01:21.704Z,0.66
2024-01-24T13:02:21.654Z,0.67
2024-01-24T13:03:23.334Z,0.65
2024-01-24T13:04:21.738Z,0.65
2024-01-24T13:05:26.416Z,0.65
2024-01-24T13:06:22.717Z,0.65
2024-01-24T13:07:21.711Z,0.65
2024-01-24T13:08:21.697Z,0.64
2024-01-24T13:09:21.645Z,0.65
2024-01-24T13:10:21.665Z,0.64
2024-01-24T13:11:21.731Z,0.64
2024-01-24T13:12:21.767Z,0.64
2024-01-24T13:13:21.715Z,0.63
2024-01-24T13:14:21.590Z,0.61
2024-01-24T13:15:21.820Z,0.62
2024-01-24T13:16:21.608Z,0.60
2024-01-24T13:17:21.597Z,0.60
2024-01-24T13:18:21.758Z,0.60
2024-01-24T13:19:21.560Z,0.61